sensor_id;sensor_type;location;lat;lon;timestamp;P1;durP1;ratioP1;P2;durP2;ratioP2
24425;SDS011;12611;44.446;26.000;2023-03-30T00:01:05;12.70;;;6.30;;
24425;SDS011;12611;44.446;26.000;2023-03-30T00:03:37;12.33;;;6.80;;
24425;SDS011;12611;44.446;26.000;2023-03-30T00:06:06;11.10;;;6.27;;
24425;SDS011;12611;44.446;26.000;2023-03-30T00:08:37;11.77;;;5.63;;
24425;SDS011;12611;44.446;26.000;2023-03-30T00:11:06;8.90;;;5.30;;
24425;SDS011;12611;44.446;26.000;2023-03-30T00:13:36;11.70;;;5.90;;
24425;SDS011;12611;44.446;26.000;2023-03-30T00:16:06;13.00;;;6.43;;
24425;SDS011;12611;44.446;26.000;2023-03-30T00:18:36;10.90;;;5.73;;
24425;SDS011;12611;44.446;26.000;2023-03-30T00:21:06;9.30;;;5.40;;
24425;SDS011;12611;44.446;26.000;2023-03-30T00:23:34;11.10;;;6.30;;
24425;SDS011;12611;44.446;26.000;2023-03-30T00:26:05;11.20;;;5.77;;
24425;SDS011;12611;44.446;26.000;2023-03-30T00:28:34;11.80;;;6.70;;
24425;SDS011;12611;44.446;26.000;2023-03-30T00:31:02;11.77;;;5.97;;
24425;SDS011;12611;44.446;26.000;2023-03-30T00:33:31;13.47;;;7.00;;
24425;SDS011;12611;44.446;26.000;2023-03-30T00:36:11;16.17;;;6.83;;
24425;SDS011;12611;44.446;26.000;2023-03-30T00:38:41;12.83;;;6.80;;
24425;SDS011;12611;44.446;26.000;2023-03-30T00:41:11;12.83;;;5.97;;
24425;SDS011;12611;44.446;26.000;2023-03-30T00:43:55;13.70;;;7.07;;
24425;SDS011;12611;44.446;26.000;2023-03-30T00:46:25;13.63;;;6.23;;
24425;SDS011;12611;44.446;26.000;2023-03-30T00:48:54;10.17;;;6.27;;
24425;SDS011;12611;44.446;26.000;2023-03-30T00:51:25;13.50;;;6.57;;
24425;SDS011;12611;44.446;26.000;2023-03-30T00:53:58;11.77;;;5.77;;
24425;SDS011;12611;44.446;26.000;2023-03-30T00:56:32;9.37;;;4.83;;
24425;SDS011;12611;44.446;26.000;2023-03-30T00:59:01;10.67;;;5.00;;
24425;SDS011;12611;44.446;26.000;2023-03-30T01:01:31;9.30;;;5.43;;
24425;SDS011;12611;44.446;26.000;2023-03-30T01:04:05;8.77;;;5.10;;
24425;SDS011;12611;44.446;26.000;2023-03-30T01:06:35;9.20;;;5.10;;
24425;SDS011;12611;44.446;26.000;2023-03-30T01:09:08;10.97;;;5.40;;
24425;SDS011;12611;44.446;26.000;2023-03-30T01:11:37;9.07;;;4.70;;
24425;SDS011;12611;44.446;26.000;2023-03-30T01:14:06;15.07;;;5.27;;
24425;SDS011;12611;44.446;26.000;2023-03-30T01:16:38;11.97;;;5.73;;
24425;SDS011;12611;44.446;26.000;2023-03-30T01:22:32;10.77;;;5.10;;
24425;SDS011;12611;44.446;26.000;2023-03-30T01:28:18;11.87;;;5.37;;
24425;SDS011;12611;44.446;26.000;2023-03-30T01:31:07;9.37;;;5.50;;
24425;SDS011;12611;44.446;26.000;2023-03-30T01:33:55;9.00;;;5.37;;
24425;SDS011;12611;44.446;26.000;2023-03-30T01:36:42;10.70;;;4.87;;
24425;SDS011;12611;44.446;26.000;2023-03-30T01:39:40;9.23;;;4.83;;
24425;SDS011;12611;44.446;26.000;2023-03-30T01:42:17;11.47;;;5.30;;
24425;SDS011;12611;44.446;26.000;2023-03-30T01:44:50;10.80;;;5.70;;
24425;SDS011;12611;44.446;26.000;2023-03-30T01:47:25;8.07;;;4.83;;
24425;SDS011;12611;44.446;26.000;2023-03-30T01:50:01;9.07;;;5.10;;
24425;SDS011;12611;44.446;26.000;2023-03-30T01:52:35;10.83;;;5.80;;
24425;SDS011;12611;44.446;26.000;2023-03-30T01:55:10;12.17;;;5.87;;
24425;SDS011;12611;44.446;26.000;2023-03-30T01:57:44;10.40;;;5.97;;
24425;SDS011;12611;44.446;26.000;2023-03-30T02:00:18;10.97;;;6.60;;
24425;SDS011;12611;44.446;26.000;2023-03-30T02:02:50;12.23;;;6.23;;
24425;SDS011;12611;44.446;26.000;2023-03-30T02:05:22;10.33;;;6.10;;
24425;SDS011;12611;44.446;26.000;2023-03-30T02:07:54;11.63;;;5.23;;
24425;SDS011;12611;44.446;26.000;2023-03-30T02:10:29;10.47;;;5.33;;
24425;SDS011;12611;44.446;26.000;2023-03-30T02:12:59;12.80;;;5.30;;
24425;SDS011;12611;44.446;26.000;2023-03-30T02:15:31;14.30;;;5.70;;
24425;SDS011;12611;44.446;26.000;2023-03-30T02:18:02;10.63;;;5.43;;
24425;SDS011;12611;44.446;26.000;2023-03-30T02:20:31;11.27;;;4.90;;
24425;SDS011;12611;44.446;26.000;2023-03-30T02:23:01;8.97;;;4.70;;
24425;SDS011;12611;44.446;26.000;2023-03-30T02:25:33;10.60;;;5.60;;
24425;SDS011;12611;44.446;26.000;2023-03-30T02:28:04;7.83;;;5.10;;
24425;SDS011;12611;44.446;26.000;2023-03-30T02:30:33;9.50;;;4.93;;
24425;SDS011;12611;44.446;26.000;2023-03-30T02:33:05;11.87;;;5.53;;
24425;SDS011;12611;44.446;26.000;2023-03-30T02:35:42;7.53;;;4.40;;
24425;SDS011;12611;44.446;26.000;2023-03-30T02:38:28;8.87;;;4.93;;
24425;SDS011;12611;44.446;26.000;2023-03-30T02:41:17;9.73;;;4.37;;
24425;SDS011;12611;44.446;26.000;2023-03-30T02:43:59;8.17;;;4.70;;
24425;SDS011;12611;44.446;26.000;2023-03-30T02:46:46;10.30;;;4.70;;
24425;SDS011;12611;44.446;26.000;2023-03-30T02:49:26;9.45;;;5.75;;
24425;SDS011;12611;44.446;26.000;2023-03-30T02:52:11;9.73;;;4.83;;
24425;SDS011;12611;44.446;26.000;2023-03-30T02:54:49;8.10;;;4.40;;
24425;SDS011;12611;44.446;26.000;2023-03-30T02:57:27;7.43;;;4.60;;
24425;SDS011;12611;44.446;26.000;2023-03-30T03:00:01;12.95;;;5.43;;
24425;SDS011;12611;44.446;26.000;2023-03-30T03:02:36;7.60;;;4.23;;
24425;SDS011;12611;44.446;26.000;2023-03-30T03:05:07;9.03;;;4.23;;
24425;SDS011;12611;44.446;26.000;2023-03-30T03:07:40;8.17;;;4.40;;
24425;SDS011;12611;44.446;26.000;2023-03-30T03:10:10;9.43;;;4.30;;
24425;SDS011;12611;44.446;26.000;2023-03-30T03:12:40;11.73;;;4.90;;
24425;SDS011;12611;44.446;26.000;2023-03-30T03:15:11;12.47;;;5.07;;
24425;SDS011;12611;44.446;26.000;2023-03-30T03:17:39;16.97;;;4.53;;
24425;SDS011;12611;44.446;26.000;2023-03-30T03:20:10;12.03;;;4.60;;
24425;SDS011;12611;44.446;26.000;2023-03-30T03:22:40;8.73;;;4.13;;
24425;SDS011;12611;44.446;26.000;2023-03-30T03:25:08;14.23;;;5.80;;
24425;SDS011;12611;44.446;26.000;2023-03-30T03:27:37;10.60;;;4.67;;
24425;SDS011;12611;44.446;26.000;2023-03-30T03:30:07;11.43;;;5.17;;
24425;SDS011;12611;44.446;26.000;2023-03-30T03:32:36;13.87;;;4.63;;
24425;SDS011;12611;44.446;26.000;2023-03-30T03:35:05;9.20;;;4.80;;
24425;SDS011;12611;44.446;26.000;2023-03-30T03:37:34;20.07;;;4.77;;
24425;SDS011;12611;44.446;26.000;2023-03-30T03:40:03;8.87;;;4.20;;
24425;SDS011;12611;44.446;26.000;2023-03-30T03:42:33;14.83;;;5.13;;
24425;SDS011;12611;44.446;26.000;2023-03-30T03:45:02;12.47;;;5.20;;
24425;SDS011;12611;44.446;26.000;2023-03-30T03:47:32;19.27;;;5.40;;
24425;SDS011;12611;44.446;26.000;2023-03-30T03:50:01;25.77;;;5.80;;
24425;SDS011;12611;44.446;26.000;2023-03-30T03:52:34;17.37;;;5.37;;
24425;SDS011;12611;44.446;26.000;2023-03-30T03:55:03;11.07;;;5.10;;
24425;SDS011;12611;44.446;26.000;2023-03-30T03:57:33;15.60;;;6.28;;
24425;SDS011;12611;44.446;26.000;2023-03-30T04:00:02;12.47;;;5.37;;
24425;SDS011;12611;44.446;26.000;2023-03-30T04:02:42;12.17;;;5.40;;
24425;SDS011;12611;44.446;26.000;2023-03-30T04:05:11;9.00;;;5.13;;
24425;SDS011;12611;44.446;26.000;2023-03-30T04:07:40;13.33;;;6.40;;
24425;SDS011;12611;44.446;26.000;2023-03-30T04:10:12;19.17;;;6.60;;
24425;SDS011;12611;44.446;26.000;2023-03-30T04:12:40;17.57;;;6.97;;
24425;SDS011;12611;44.446;26.000;2023-03-30T04:15:09;11.17;;;6.43;;
24425;SDS011;12611;44.446;26.000;2023-03-30T04:17:37;11.23;;;6.33;;
24425;SDS011;12611;44.446;26.000;2023-03-30T04:20:08;20.47;;;7.10;;
24425;SDS011;12611;44.446;26.000;2023-03-30T04:22:37;18.90;;;6.53;;
24425;SDS011;12611;44.446;26.000;2023-03-30T04:25:07;14.23;;;6.47;;
24425;SDS011;12611;44.446;26.000;2023-03-30T04:27:36;17.97;;;7.43;;
24425;SDS011;12611;44.446;26.000;2023-03-30T04:30:08;18.90;;;8.30;;
24425;SDS011;12611;44.446;26.000;2023-03-30T04:32:37;15.80;;;7.07;;
24425;SDS011;12611;44.446;26.000;2023-03-30T04:35:08;21.87;;;7.70;;
24425;SDS011;12611;44.446;26.000;2023-03-30T04:37:37;20.07;;;8.60;;
24425;SDS011;12611;44.446;26.000;2023-03-30T04:40:08;20.10;;;9.03;;
24425;SDS011;12611;44.446;26.000;2023-03-30T04:42:36;21.13;;;8.70;;
24425;SDS011;12611;44.446;26.000;2023-03-30T04:45:05;18.97;;;7.93;;
24425;SDS011;12611;44.446;26.000;2023-03-30T04:47:36;17.67;;;7.20;;
24425;SDS011;12611;44.446;26.000;2023-03-30T04:50:04;18.50;;;7.87;;
24425;SDS011;12611;44.446;26.000;2023-03-30T04:52:34;17.67;;;7.10;;
24425;SDS011;12611;44.446;26.000;2023-03-30T04:55:03;17.57;;;7.53;;
24425;SDS011;12611;44.446;26.000;2023-03-30T04:57:32;13.93;;;7.03;;
24425;SDS011;12611;44.446;26.000;2023-03-30T05:00:00;14.93;;;7.10;;
24425;SDS011;12611;44.446;26.000;2023-03-30T05:02:29;16.53;;;6.87;;
24425;SDS011;12611;44.446;26.000;2023-03-30T05:04:58;20.40;;;6.37;;
24425;SDS011;12611;44.446;26.000;2023-03-30T05:07:26;20.53;;;7.37;;
24425;SDS011;12611;44.446;26.000;2023-03-30T05:09:56;18.40;;;7.00;;
24425;SDS011;12611;44.446;26.000;2023-03-30T05:12:24;17.83;;;6.67;;
24425;SDS011;12611;44.446;26.000;2023-03-30T05:14:52;17.37;;;7.23;;
24425;SDS011;12611;44.446;26.000;2023-03-30T05:17:21;13.80;;;6.10;;
24425;SDS011;12611;44.446;26.000;2023-03-30T05:19:49;19.07;;;5.90;;
24425;SDS011;12611;44.446;26.000;2023-03-30T05:22:18;18.93;;;6.63;;
24425;SDS011;12611;44.446;26.000;2023-03-30T05:24:47;11.40;;;5.80;;
24425;SDS011;12611;44.446;26.000;2023-03-30T05:27:16;13.90;;;5.40;;
24425;SDS011;12611;44.446;26.000;2023-03-30T05:29:45;13.60;;;5.10;;
24425;SDS011;12611;44.446;26.000;2023-03-30T05:32:13;10.27;;;4.27;;
24425;SDS011;12611;44.446;26.000;2023-03-30T05:34:42;14.77;;;4.57;;
24425;SDS011;12611;44.446;26.000;2023-03-30T05:37:10;11.63;;;5.40;;
24425;SDS011;12611;44.446;26.000;2023-03-30T05:39:38;14.10;;;6.03;;
24425;SDS011;12611;44.446;26.000;2023-03-30T05:42:07;15.07;;;6.37;;
24425;SDS011;12611;44.446;26.000;2023-03-30T05:44:38;15.03;;;6.20;;
24425;SDS011;12611;44.446;26.000;2023-03-30T05:47:06;10.67;;;5.43;;
24425;SDS011;12611;44.446;26.000;2023-03-30T05:49:35;14.07;;;5.83;;
24425;SDS011;12611;44.446;26.000;2023-03-30T05:52:03;16.97;;;7.17;;
24425;SDS011;12611;44.446;26.000;2023-03-30T05:54:32;19.17;;;7.93;;
24425;SDS011;12611;44.446;26.000;2023-03-30T05:57:00;19.23;;;8.03;;
24425;SDS011;12611;44.446;26.000;2023-03-30T05:59:29;19.13;;;8.20;;
24425;SDS011;12611;44.446;26.000;2023-03-30T06:01:59;27.10;;;10.07;;
24425;SDS011;12611;44.446;26.000;2023-03-30T06:04:28;20.07;;;8.40;;
24425;SDS011;12611;44.446;26.000;2023-03-30T06:06:57;18.73;;;7.60;;
24425;SDS011;12611;44.446;26.000;2023-03-30T06:09:25;14.33;;;7.53;;
24425;SDS011;12611;44.446;26.000;2023-03-30T06:11:54;19.50;;;7.23;;
24425;SDS011;12611;44.446;26.000;2023-03-30T06:14:22;14.30;;;5.67;;
24425;SDS011;12611;44.446;26.000;2023-03-30T06:16:51;13.70;;;6.00;;
24425;SDS011;12611;44.446;26.000;2023-03-30T06:19:20;14.13;;;5.73;;
24425;SDS011;12611;44.446;26.000;2023-03-30T06:21:49;13.17;;;6.23;;
24425;SDS011;12611;44.446;26.000;2023-03-30T06:24:17;15.83;;;5.63;;
24425;SDS011;12611;44.446;26.000;2023-03-30T06:26:46;14.50;;;6.07;;
24425;SDS011;12611;44.446;26.000;2023-03-30T06:29:14;12.37;;;5.93;;
24425;SDS011;12611;44.446;26.000;2023-03-30T06:31:43;9.57;;;5.77;;
24425;SDS011;12611;44.446;26.000;2023-03-30T06:34:12;12.60;;;5.67;;
24425;SDS011;12611;44.446;26.000;2023-03-30T06:36:41;10.63;;;5.30;;
24425;SDS011;12611;44.446;26.000;2023-03-30T06:39:11;14.47;;;4.97;;
24425;SDS011;12611;44.446;26.000;2023-03-30T06:41:40;10.50;;;4.57;;
24425;SDS011;12611;44.446;26.000;2023-03-30T06:44:12;8.73;;;4.17;;
24425;SDS011;12611;44.446;26.000;2023-03-30T06:46:41;9.03;;;4.37;;
24425;SDS011;12611;44.446;26.000;2023-03-30T06:49:10;9.67;;;4.10;;
24425;SDS011;12611;44.446;26.000;2023-03-30T06:51:39;7.07;;;3.57;;
24425;SDS011;12611;44.446;26.000;2023-03-30T06:54:09;7.27;;;3.60;;
24425;SDS011;12611;44.446;26.000;2023-03-30T06:56:37;8.93;;;4.43;;
24425;SDS011;12611;44.446;26.000;2023-03-30T06:59:06;6.83;;;3.77;;
24425;SDS011;12611;44.446;26.000;2023-03-30T07:01:35;6.20;;;3.33;;
24425;SDS011;12611;44.446;26.000;2023-03-30T07:04:03;12.20;;;3.73;;
24425;SDS011;12611;44.446;26.000;2023-03-30T07:06:32;9.07;;;3.63;;
24425;SDS011;12611;44.446;26.000;2023-03-30T07:09:02;8.73;;;4.20;;
24425;SDS011;12611;44.446;26.000;2023-03-30T07:11:32;6.77;;;3.80;;
24425;SDS011;12611;44.446;26.000;2023-03-30T07:14:00;7.77;;;4.50;;
24425;SDS011;12611;44.446;26.000;2023-03-30T07:16:30;7.63;;;4.43;;
24425;SDS011;12611;44.446;26.000;2023-03-30T07:18:59;9.90;;;4.67;;
24425;SDS011;12611;44.446;26.000;2023-03-30T07:21:27;16.63;;;4.90;;
24425;SDS011;12611;44.446;26.000;2023-03-30T07:23:56;8.63;;;4.20;;
24425;SDS011;12611;44.446;26.000;2023-03-30T07:26:28;9.37;;;4.40;;
24425;SDS011;12611;44.446;26.000;2023-03-30T07:28:56;7.87;;;3.90;;
24425;SDS011;12611;44.446;26.000;2023-03-30T07:31:25;8.97;;;3.97;;
24425;SDS011;12611;44.446;26.000;2023-03-30T07:33:53;8.57;;;3.80;;
24425;SDS011;12611;44.446;26.000;2023-03-30T07:36:22;7.40;;;3.37;;
24425;SDS011;12611;44.446;26.000;2023-03-30T07:38:50;4.70;;;2.50;;
24425;SDS011;12611;44.446;26.000;2023-03-30T07:41:18;7.10;;;2.70;;
24425;SDS011;12611;44.446;26.000;2023-03-30T07:43:48;7.80;;;2.80;;
24425;SDS011;12611;44.446;26.000;2023-03-30T07:46:16;9.30;;;3.70;;
24425;SDS011;12611;44.446;26.000;2023-03-30T07:48:45;5.77;;;2.57;;
24425;SDS011;12611;44.446;26.000;2023-03-30T07:51:16;5.93;;;2.70;;
24425;SDS011;12611;44.446;26.000;2023-03-30T07:53:46;5.70;;;2.37;;
24425;SDS011;12611;44.446;26.000;2023-03-30T07:56:14;4.33;;;2.10;;
24425;SDS011;12611;44.446;26.000;2023-03-30T07:58:42;5.43;;;2.30;;
24425;SDS011;12611;44.446;26.000;2023-03-30T08:01:12;4.57;;;2.20;;
24425;SDS011;12611;44.446;26.000;2023-03-30T08:03:41;8.63;;;2.50;;
24425;SDS011;12611;44.446;26.000;2023-03-30T08:06:11;4.03;;;2.20;;
24425;SDS011;12611;44.446;26.000;2023-03-30T08:08:39;4.80;;;2.43;;
24425;SDS011;12611;44.446;26.000;2023-03-30T08:11:09;5.17;;;2.93;;
24425;SDS011;12611;44.446;26.000;2023-03-30T08:13:54;5.67;;;2.27;;
24425;SDS011;12611;44.446;26.000;2023-03-30T08:16:44;4.47;;;2.07;;
24425;SDS011;12611;44.446;26.000;2023-03-30T08:19:12;4.20;;;2.30;;
24425;SDS011;12611;44.446;26.000;2023-03-30T08:21:41;7.07;;;2.53;;
24425;SDS011;12611;44.446;26.000;2023-03-30T08:24:09;4.93;;;2.20;;
24425;SDS011;12611;44.446;26.000;2023-03-30T08:30:13;11.93;;;2.63;;
24425;SDS011;12611;44.446;26.000;2023-03-30T08:32:43;5.77;;;2.60;;
24425;SDS011;12611;44.446;26.000;2023-03-30T08:35:12;4.23;;;2.13;;
24425;SDS011;12611;44.446;26.000;2023-03-30T08:37:42;4.23;;;2.10;;
24425;SDS011;12611;44.446;26.000;2023-03-30T08:40:10;5.53;;;2.23;;
24425;SDS011;12611;44.446;26.000;2023-03-30T08:42:57;4.90;;;2.43;;
24425;SDS011;12611;44.446;26.000;2023-03-30T08:45:48;5.50;;;2.57;;
24425;SDS011;12611;44.446;26.000;2023-03-30T08:48:19;4.87;;;2.10;;
24425;SDS011;12611;44.446;26.000;2023-03-30T08:50:52;5.65;;;2.50;;
24425;SDS011;12611;44.446;26.000;2023-03-30T08:53:24;4.07;;;2.20;;
24425;SDS011;12611;44.446;26.000;2023-03-30T08:55:56;7.47;;;2.80;;
24425;SDS011;12611;44.446;26.000;2023-03-30T08:58:29;5.27;;;2.20;;
24425;SDS011;12611;44.446;26.000;2023-03-30T09:01:15;3.80;;;2.10;;
24425;SDS011;12611;44.446;26.000;2023-03-30T09:06:45;5.17;;;2.30;;
24425;SDS011;12611;44.446;26.000;2023-03-30T09:09:17;4.93;;;2.13;;
24425;SDS011;12611;44.446;26.000;2023-03-30T09:11:47;4.40;;;2.30;;
24425;SDS011;12611;44.446;26.000;2023-03-30T09:14:22;4.50;;;1.97;;
24425;SDS011;12611;44.446;26.000;2023-03-30T09:16:59;4.37;;;2.07;;
24425;SDS011;12611;44.446;26.000;2023-03-30T09:19:38;4.27;;;2.40;;
24425;SDS011;12611;44.446;26.000;2023-03-30T09:22:14;2.67;;;1.83;;
24425;SDS011;12611;44.446;26.000;2023-03-30T09:24:46;3.37;;;1.87;;
24425;SDS011;12611;44.446;26.000;2023-03-30T09:27:17;3.90;;;1.90;;
24425;SDS011;12611;44.446;26.000;2023-03-30T09:29:52;4.67;;;1.73;;
24425;SDS011;12611;44.446;26.000;2023-03-30T09:32:25;4.50;;;2.00;;
24425;SDS011;12611;44.446;26.000;2023-03-30T09:35:10;4.57;;;2.03;;
24425;SDS011;12611;44.446;26.000;2023-03-30T09:37:47;5.13;;;2.00;;
24425;SDS011;12611;44.446;26.000;2023-03-30T09:40:21;5.83;;;1.93;;
24425;SDS011;12611;44.446;26.000;2023-03-30T09:43:00;3.83;;;2.00;;
24425;SDS011;12611;44.446;26.000;2023-03-30T09:45:37;4.90;;;1.90;;
24425;SDS011;12611;44.446;26.000;2023-03-30T09:48:07;4.43;;;2.17;;
24425;SDS011;12611;44.446;26.000;2023-03-30T09:50:38;3.90;;;2.10;;
24425;SDS011;12611;44.446;26.000;2023-03-30T09:53:16;6.57;;;2.00;;
24425;SDS011;12611;44.446;26.000;2023-03-30T09:55:53;4.07;;;1.80;;
24425;SDS011;12611;44.446;26.000;2023-03-30T09:58:27;4.27;;;2.00;;
24425;SDS011;12611;44.446;26.000;2023-03-30T10:01:00;3.53;;;1.80;;
24425;SDS011;12611;44.446;26.000;2023-03-30T10:03:30;4.73;;;2.40;;
24425;SDS011;12611;44.446;26.000;2023-03-30T10:06:01;6.37;;;1.80;;
24425;SDS011;12611;44.446;26.000;2023-03-30T10:08:34;3.80;;;1.70;;
24425;SDS011;12611;44.446;26.000;2023-03-30T10:11:08;4.70;;;2.00;;
24425;SDS011;12611;44.446;26.000;2023-03-30T10:13:38;4.03;;;2.20;;
24425;SDS011;12611;44.446;26.000;2023-03-30T10:16:11;6.07;;;1.70;;
24425;SDS011;12611;44.446;26.000;2023-03-30T10:18:47;3.00;;;1.60;;
24425;SDS011;12611;44.446;26.000;2023-03-30T10:21:22;4.77;;;1.80;;
24425;SDS011;12611;44.446;26.000;2023-03-30T10:24:00;3.77;;;1.87;;
24425;SDS011;12611;44.446;26.000;2023-03-30T10:26:34;3.00;;;1.50;;
24425;SDS011;12611;44.446;26.000;2023-03-30T10:29:05;5.10;;;2.10;;
24425;SDS011;12611;44.446;26.000;2023-03-30T10:31:37;5.87;;;1.80;;
24425;SDS011;12611;44.446;26.000;2023-03-30T10:34:13;6.07;;;2.00;;
24425;SDS011;12611;44.446;26.000;2023-03-30T10:36:45;5.67;;;2.30;;
24425;SDS011;12611;44.446;26.000;2023-03-30T10:39:20;6.73;;;2.50;;
24425;SDS011;12611;44.446;26.000;2023-03-30T10:41:51;5.13;;;1.77;;
24425;SDS011;12611;44.446;26.000;2023-03-30T10:44:24;6.43;;;2.23;;
24425;SDS011;12611;44.446;26.000;2023-03-30T10:47:01;4.63;;;2.07;;
24425;SDS011;12611;44.446;26.000;2023-03-30T10:49:38;4.90;;;2.30;;
24425;SDS011;12611;44.446;26.000;2023-03-30T10:52:19;3.87;;;2.10;;
24425;SDS011;12611;44.446;26.000;2023-03-30T10:54:54;4.87;;;2.27;;
24425;SDS011;12611;44.446;26.000;2023-03-30T10:57:31;3.80;;;2.10;;
24425;SDS011;12611;44.446;26.000;2023-03-30T11:00:13;8.83;;;2.00;;
24425;SDS011;12611;44.446;26.000;2023-03-30T11:02:59;2.83;;;1.63;;
24425;SDS011;12611;44.446;26.000;2023-03-30T11:05:34;4.27;;;1.80;;
24425;SDS011;12611;44.446;26.000;2023-03-30T11:08:10;4.03;;;2.17;;
24425;SDS011;12611;44.446;26.000;2023-03-30T11:10:41;6.20;;;1.90;;
24425;SDS011;12611;44.446;26.000;2023-03-30T11:13:15;3.10;;;1.47;;
24425;SDS011;12611;44.446;26.000;2023-03-30T11:15:47;3.50;;;1.57;;
24425;SDS011;12611;44.446;26.000;2023-03-30T11:18:28;4.97;;;1.67;;
24425;SDS011;12611;44.446;26.000;2023-03-30T11:21:05;2.83;;;1.83;;
24425;SDS011;12611;44.446;26.000;2023-03-30T11:23:41;4.00;;;1.83;;
24425;SDS011;12611;44.446;26.000;2023-03-30T11:26:21;5.07;;;1.70;;
24425;SDS011;12611;44.446;26.000;2023-03-30T11:29:08;3.73;;;1.53;;
24425;SDS011;12611;44.446;26.000;2023-03-30T11:31:54;4.00;;;1.53;;
24425;SDS011;12611;44.446;26.000;2023-03-30T11:34:28;2.70;;;1.50;;
24425;SDS011;12611;44.446;26.000;2023-03-30T11:37:04;4.00;;;1.30;;
24425;SDS011;12611;44.446;26.000;2023-03-30T11:39:42;2.67;;;1.50;;
24425;SDS011;12611;44.446;26.000;2023-03-30T11:42:19;2.70;;;1.50;;
24425;SDS011;12611;44.446;26.000;2023-03-30T11:44:52;2.87;;;1.60;;
24425;SDS011;12611;44.446;26.000;2023-03-30T11:47:25;2.67;;;1.63;;
24425;SDS011;12611;44.446;26.000;2023-03-30T11:50:22;4.50;;;1.70;;
24425;SDS011;12611;44.446;26.000;2023-03-30T11:53:04;3.60;;;1.97;;
24425;SDS011;12611;44.446;26.000;2023-03-30T11:55:50;2.57;;;1.50;;
24425;SDS011;12611;44.446;26.000;2023-03-30T11:58:33;2.57;;;1.40;;
24425;SDS011;12611;44.446;26.000;2023-03-30T12:01:11;6.10;;;1.53;;
24425;SDS011;12611;44.446;26.000;2023-03-30T12:03:53;4.43;;;1.90;;
24425;SDS011;12611;44.446;26.000;2023-03-30T12:06:36;2.67;;;1.37;;
24425;SDS011;12611;44.446;26.000;2023-03-30T12:12:03;3.87;;;1.87;;
24425;SDS011;12611;44.446;26.000;2023-03-30T12:14:39;4.17;;;1.80;;
24425;SDS011;12611;44.446;26.000;2023-03-30T12:17:33;3.43;;;1.50;;
24425;SDS011;12611;44.446;26.000;2023-03-30T12:20:27;3.20;;;1.73;;
24425;SDS011;12611;44.446;26.000;2023-03-30T12:23:01;6.43;;;1.67;;
24425;SDS011;12611;44.446;26.000;2023-03-30T12:25:48;3.03;;;1.70;;
24425;SDS011;12611;44.446;26.000;2023-03-30T12:28:40;3.83;;;1.40;;
24425;SDS011;12611;44.446;26.000;2023-03-30T12:31:47;3.37;;;1.50;;
24425;SDS011;12611;44.446;26.000;2023-03-30T12:34:36;5.70;;;1.77;;
24425;SDS011;12611;44.446;26.000;2023-03-30T12:37:10;3.33;;;1.57;;
24425;SDS011;12611;44.446;26.000;2023-03-30T12:39:48;6.30;;;1.60;;
24425;SDS011;12611;44.446;26.000;2023-03-30T12:42:23;4.30;;;1.60;;
24425;SDS011;12611;44.446;26.000;2023-03-30T12:45:10;2.93;;;1.57;;
24425;SDS011;12611;44.446;26.000;2023-03-30T12:47:52;3.80;;;1.63;;
24425;SDS011;12611;44.446;26.000;2023-03-30T12:50:54;6.00;;;1.37;;
24425;SDS011;12611;44.446;26.000;2023-03-30T12:54:07;3.20;;;1.73;;
24425;SDS011;12611;44.446;26.000;2023-03-30T13:00:07;2.87;;;1.50;;
24425;SDS011;12611;44.446;26.000;2023-03-30T13:03:10;6.10;;;1.33;;
24425;SDS011;12611;44.446;26.000;2023-03-30T13:06:05;7.93;;;1.97;;
24425;SDS011;12611;44.446;26.000;2023-03-30T13:08:41;1.97;;;1.30;;
24425;SDS011;12611;44.446;26.000;2023-03-30T13:11:10;3.83;;;1.07;;
24425;SDS011;12611;44.446;26.000;2023-03-30T13:13:45;3.13;;;1.50;;
24425;SDS011;12611;44.446;26.000;2023-03-30T13:19:45;2.28;;;1.52;;
24425;SDS011;12611;44.446;26.000;2023-03-30T13:22:58;4.32;;;1.60;;
24425;SDS011;12611;44.446;26.000;2023-03-30T13:25:35;9.52;;;1.45;;
24425;SDS011;12611;44.446;26.000;2023-03-30T13:31:30;3.15;;;1.42;;
24425;SDS011;12611;44.446;26.000;2023-03-30T13:34:17;4.50;;;1.55;;
24425;SDS011;12611;44.446;26.000;2023-03-30T13:36:58;2.92;;;1.63;;
24425;SDS011;12611;44.446;26.000;2023-03-30T13:39:33;2.53;;;1.50;;
24425;SDS011;12611;44.446;26.000;2023-03-30T13:42:20;2.55;;;1.27;;
24425;SDS011;12611;44.446;26.000;2023-03-30T13:44:58;4.95;;;1.48;;
24425;SDS011;12611;44.446;26.000;2023-03-30T13:47:37;3.08;;;1.38;;
24425;SDS011;12611;44.446;26.000;2023-03-30T13:50:16;3.58;;;1.52;;
24425;SDS011;12611;44.446;26.000;2023-03-30T13:52:53;4.60;;;1.52;;
24425;SDS011;12611;44.446;26.000;2023-03-30T13:55:25;2.15;;;1.23;;
24425;SDS011;12611;44.446;26.000;2023-03-30T13:57:59;3.92;;;1.65;;
24425;SDS011;12611;44.446;26.000;2023-03-30T14:00:33;5.22;;;1.63;;
24425;SDS011;12611;44.446;26.000;2023-03-30T14:03:24;2.17;;;1.48;;
24425;SDS011;12611;44.446;26.000;2023-03-30T14:06:00;2.05;;;1.30;;
24425;SDS011;12611;44.446;26.000;2023-03-30T14:08:31;3.10;;;1.38;;
24425;SDS011;12611;44.446;26.000;2023-03-30T14:11:07;3.05;;;1.75;;
24425;SDS011;12611;44.446;26.000;2023-03-30T14:13:40;4.60;;;1.55;;
24425;SDS011;12611;44.446;26.000;2023-03-30T14:16:17;2.38;;;1.35;;
24425;SDS011;12611;44.446;26.000;2023-03-30T14:18:47;2.30;;;1.55;;
24425;SDS011;12611;44.446;26.000;2023-03-30T14:21:18;8.40;;;1.83;;
24425;SDS011;12611;44.446;26.000;2023-03-30T14:23:50;6.85;;;1.60;;
24425;SDS011;12611;44.446;26.000;2023-03-30T14:26:21;5.53;;;1.60;;
24425;SDS011;12611;44.446;26.000;2023-03-30T14:28:52;4.18;;;1.70;;
24425;SDS011;12611;44.446;26.000;2023-03-30T14:31:22;6.07;;;2.10;;
24425;SDS011;12611;44.446;26.000;2023-03-30T14:33:52;5.72;;;1.80;;
24425;SDS011;12611;44.446;26.000;2023-03-30T14:36:22;4.80;;;1.70;;
24425;SDS011;12611;44.446;26.000;2023-03-30T14:38:51;5.72;;;1.48;;
24425;SDS011;12611;44.446;26.000;2023-03-30T14:41:23;13.73;;;2.70;;
24425;SDS011;12611;44.446;26.000;2023-03-30T14:43:53;8.38;;;1.88;;
24425;SDS011;12611;44.446;26.000;2023-03-30T14:46:24;4.38;;;1.55;;
24425;SDS011;12611;44.446;26.000;2023-03-30T14:48:57;5.47;;;1.88;;
24425;SDS011;12611;44.446;26.000;2023-03-30T14:51:35;6.63;;;1.48;;
24425;SDS011;12611;44.446;26.000;2023-03-30T14:54:05;8.20;;;1.57;;
24425;SDS011;12611;44.446;26.000;2023-03-30T14:56:35;5.77;;;1.50;;
24425;SDS011;12611;44.446;26.000;2023-03-30T14:59:03;2.53;;;1.67;;
24425;SDS011;12611;44.446;26.000;2023-03-30T15:01:33;2.73;;;1.53;;
24425;SDS011;12611;44.446;26.000;2023-03-30T15:04:03;7.87;;;1.60;;
24425;SDS011;12611;44.446;26.000;2023-03-30T15:06:36;3.10;;;1.47;;
24425;SDS011;12611;44.446;26.000;2023-03-30T15:09:06;3.00;;;1.70;;
24425;SDS011;12611;44.446;26.000;2023-03-30T15:11:39;2.87;;;1.40;;
24425;SDS011;12611;44.446;26.000;2023-03-30T15:14:08;5.03;;;1.80;;
24425;SDS011;12611;44.446;26.000;2023-03-30T15:16:41;3.97;;;1.30;;
24425;SDS011;12611;44.446;26.000;2023-03-30T15:19:14;3.97;;;1.60;;
24425;SDS011;12611;44.446;26.000;2023-03-30T15:21:54;4.37;;;2.10;;
24425;SDS011;12611;44.446;26.000;2023-03-30T15:24:26;3.23;;;1.67;;
24425;SDS011;12611;44.446;26.000;2023-03-30T15:26:59;3.80;;;1.60;;
24425;SDS011;12611;44.446;26.000;2023-03-30T15:29:29;4.20;;;1.87;;
24425;SDS011;12611;44.446;26.000;2023-03-30T15:31:59;8.73;;;2.13;;
24425;SDS011;12611;44.446;26.000;2023-03-30T15:34:32;6.43;;;2.00;;